createdAt,value
2023-02-08T00:01:28.981Z,14.70
2023-02-08T00:03:56.861Z,15.70
2023-02-08T00:06:24.550Z,13.80
2023-02-08T00:08:52.303Z,12.60
2023-02-08T00:11:20.141Z,12.70
2023-02-08T00:13:47.892Z,14.80
2023-02-08T00:16:16.247Z,14.10
2023-02-08T00:18:48.013Z,14.20
2023-02-08T00:21:16.504Z,10.90
2023-02-08T00:23:44.300Z,13.00
2023-02-08T00:26:12.225Z,13.30
2023-02-08T00:28:40.400Z,14.80
2023-02-08T00:31:08.279Z,13.60
2023-02-08T00:33:36.151Z,12.80
2023-02-08T00:36:11.173Z,13.40
2023-02-08T00:38:39.142Z,14.60
2023-02-08T00:41:06.992Z,14.40
2023-02-08T00:43:34.960Z,14.50
2023-02-08T00:46:03.725Z,13.90
2023-02-08T00:48:31.845Z,13.70
2023-02-08T00:51:03.861Z,12.80
2023-02-08T00:53:34.699Z,14.10
2023-02-08T00:56:02.341Z,15.20
2023-02-08T00:58:30.307Z,14.20
2023-02-08T01:00:58.075Z,14.00
2023-02-08T01:03:25.796Z,14.90
2023-02-08T01:05:53.922Z,12.60
2023-02-08T01:08:22.156Z,13.20
2023-02-08T01:10:50.077Z,13.00
2023-02-08T01:13:17.889Z,12.70
2023-02-08T01:15:45.526Z,13.40
2023-02-08T01:18:13.381Z,11.80
2023-02-08T01:20:43.045Z,12.60
2023-02-08T01:23:10.758Z,13.40
2023-02-08T01:25:39.364Z,12.70
2023-02-08T01:28:07.063Z,11.60
2023-02-08T01:30:34.953Z,11.20
2023-02-08T01:33:02.676Z,12.50
2023-02-08T01:35:30.268Z,11.50
2023-02-08T01:37:58.431Z,11.80
2023-02-08T01:40:32.681Z,12.50
2023-02-08T01:43:00.402Z,12.70
2023-02-08T01:45:30.518Z,12.50
2023-02-08T01:48:04.704Z,12.00
2023-02-08T01:50:40.276Z,10.00
2023-02-08T01:53:08.350Z,10.50
2023-02-08T01:55:39.306Z,11.30
2023-02-08T01:58:09.032Z,11.00
2023-02-08T02:00:36.753Z,10.80
2023-02-08T02:03:15.204Z,9.70
2023-02-08T02:05:54.512Z,10.90
2023-02-08T02:08:30.320Z,11.10
2023-02-08T02:11:04.193Z,12.50
2023-02-08T02:13:41.110Z,12.80
2023-02-08T02:16:08.860Z,13.30
2023-02-08T02:18:36.604Z,12.30
2023-02-08T02:21:09.349Z,12.80
2023-02-08T02:23:56.297Z,12.10
2023-02-08T02:26:38.511Z,12.40
2023-02-08T02:29:12.003Z,12.60
2023-02-08T02:31:50.355Z,12.10
2023-02-08T02:34:17.988Z,11.60
2023-02-08T02:36:52.118Z,12.30
2023-02-08T02:39:25.047Z,12.10
2023-02-08T02:42:30.875Z,14.10
2023-02-08T02:45:04.645Z,13.60
2023-02-08T02:47:45.321Z,14.80
2023-02-08T02:50:25.164Z,15.40
2023-02-08T02:52:56.004Z,13.60
2023-02-08T02:55:25.283Z,14.20
2023-02-08T02:57:54.248Z,14.50
2023-02-08T03:00:23.714Z,16.30
2023-02-08T03:02:51.937Z,15.10
2023-02-08T03:05:19.683Z,12.90
2023-02-08T03:08:15.845Z,14.00
2023-02-08T03:10:49.623Z,14.10
2023-02-08T03:13:39.993Z,13.00
2023-02-08T03:16:17.251Z,13.80
2023-02-08T03:19:04.203Z,10.80
2023-02-08T03:21:55.256Z,9.90
2023-02-08T03:24:22.932Z,11.30
2023-02-08T03:27:15.599Z,10.60
2023-02-08T03:30:02.533Z,10.40
2023-02-08T03:32:30.271Z,10.10
2023-02-08T03:35:00.201Z,10.10
2023-02-08T03:37:30.754Z,10.70
2023-02-08T03:40:01.701Z,11.80
2023-02-08T03:42:30.810Z,15.00
2023-02-08T03:45:01.233Z,19.60
2023-02-08T03:47:30.988Z,24.90
2023-02-08T03:50:01.280Z,21.70
2023-02-08T03:52:36.066Z,17.10
2023-02-08T03:55:06.838Z,16.00
2023-02-08T03:57:40.920Z,18.10
2023-02-08T04:03:04.184Z,15.50
2023-02-08T04:05:32.060Z,14.60
2023-02-08T04:07:59.831Z,13.20
2023-02-08T04:10:27.545Z,13.40
2023-02-08T04:12:55.273Z,10.30
2023-02-08T04:15:23.544Z,13.00
2023-02-08T04:17:58.214Z,11.90
2023-02-08T04:20:25.965Z,11.30
2023-02-08T04:22:53.645Z,10.70
2023-02-08T04:25:21.367Z,10.20
2023-02-08T04:27:49.104Z,11.80
2023-02-08T04:30:17.310Z,10.70
2023-02-08T04:32:45.008Z,10.80
2023-02-08T04:35:12.690Z,11.10
2023-02-08T04:37:41.235Z,10.30
2023-02-08T04:40:09.591Z,12.00
2023-02-08T04:42:37.319Z,11.50
2023-02-08T04:45:05.187Z,11.00
2023-02-08T04:47:33.015Z,10.70
2023-02-08T04:50:00.680Z,11.00
2023-02-08T04:52:28.343Z,10.60
2023-02-08T04:54:56.324Z,11.30
2023-02-08T04:57:23.985Z,11.60
2023-02-08T04:59:51.629Z,11.80
2023-02-08T05:02:19.801Z,10.70
2023-02-08T05:04:47.557Z,13.10
2023-02-08T05:07:15.281Z,14.50
2023-02-08T05:09:43.077Z,12.10
2023-02-08T05:12:10.821Z,13.50
2023-02-08T05:14:38.511Z,11.70
2023-02-08T05:17:17.470Z,11.40
2023-02-08T05:19:45.188Z,11.40
2023-02-08T05:22:12.971Z,12.20
2023-02-08T05:24:40.621Z,11.20
2023-02-08T05:27:08.269Z,10.40
2023-02-08T05:29:35.872Z,11.20
2023-02-08T05:32:03.823Z,12.20
2023-02-08T05:34:31.696Z,11.70
2023-02-08T05:36:59.390Z,12.90
2023-02-08T05:39:27.023Z,13.00
2023-02-08T05:41:54.779Z,11.30
2023-02-08T05:44:22.513Z,12.30
2023-02-08T05:46:50.245Z,13.90
2023-02-08T05:49:18.051Z,12.40
2023-02-08T05:51:45.767Z,13.50
2023-02-08T05:54:17.417Z,15.40
2023-02-08T05:56:45.148Z,15.80
2023-02-08T05:59:12.851Z,15.40
2023-02-08T06:01:40.595Z,15.30
2023-02-08T06:04:08.348Z,14.70
2023-02-08T06:06:36.278Z,15.70
2023-02-08T06:09:04.924Z,15.90
2023-02-08T06:11:32.615Z,14.80
2023-02-08T06:14:00.342Z,13.60
2023-02-08T06:16:34.199Z,15.90
2023-02-08T06:19:22.085Z,16.60
2023-02-08T06:21:49.889Z,16.90
2023-02-08T06:24:17.601Z,17.20
2023-02-08T06:26:45.350Z,16.70
2023-02-08T06:29:16.841Z,16.60
2023-02-08T06:31:44.613Z,18.00
2023-02-08T06:34:12.492Z,18.60
2023-02-08T06:36:40.252Z,16.70
2023-02-08T06:39:08.047Z,16.00
2023-02-08T06:41:36.155Z,18.40
2023-02-08T06:44:04.284Z,18.70
2023-02-08T06:46:31.902Z,20.20
2023-02-08T06:49:00.496Z,19.70
2023-02-08T06:51:28.216Z,18.60
2023-02-08T06:53:55.941Z,20.90
2023-02-08T06:56:23.658Z,20.30
2023-02-08T06:58:51.661Z,20.20
2023-02-08T07:01:19.361Z,19.90
2023-02-08T07:03:47.475Z,21.00
2023-02-08T07:06:17.176Z,22.50
2023-02-08T07:08:45.207Z,21.20
2023-02-08T07:11:17.822Z,20.90
2023-02-08T07:13:49.737Z,21.40
2023-02-08T07:16:18.419Z,21.10
2023-02-08T07:18:53.519Z,22.90
2023-02-08T07:21:21.795Z,23.80
2023-02-08T07:23:49.685Z,22.50
2023-02-08T07:26:17.601Z,23.90
2023-02-08T07:28:45.380Z,25.50
2023-02-08T07:31:15.229Z,25.20
2023-02-08T07:33:43.225Z,25.90
2023-02-08T07:36:11.321Z,26.70
2023-02-08T07:38:39.233Z,19.50
2023-02-08T07:41:08.690Z,26.60
2023-02-08T07:43:37.280Z,22.90
2023-02-08T07:46:06.677Z,23.70
2023-02-08T07:48:40.056Z,25.00
2023-02-08T07:51:09.771Z,21.20
2023-02-08T07:53:38.912Z,21.20
2023-02-08T07:56:08.408Z,20.00
2023-02-08T07:58:37.145Z,21.40
2023-02-08T08:01:20.949Z,24.50
2023-02-08T08:03:57.372Z,30.70
2023-02-08T08:06:25.345Z,37.40
2023-02-08T08:08:55.501Z,26.00
2023-02-08T08:11:23.697Z,24.30
2023-02-08T08:13:52.525Z,38.90
2023-02-08T08:16:22.283Z,40.10
2023-02-08T08:18:50.829Z,38.20
2023-02-08T08:21:18.555Z,37.70
2023-02-08T08:23:47.004Z,35.50
2023-02-08T08:26:18.472Z,36.70
2023-02-08T08:28:46.937Z,36.00
2023-02-08T08:31:16.551Z,30.90
2023-02-08T08:33:45.033Z,29.00
2023-02-08T08:36:13.203Z,31.40
2023-02-08T08:38:42.588Z,29.50
2023-02-08T08:41:15.275Z,31.60
2023-02-08T08:44:04.186Z,32.80
2023-02-08T08:46:32.254Z,32.50
2023-02-08T08:49:00.472Z,32.10
2023-02-08T08:51:28.364Z,40.60
2023-02-08T08:54:03.750Z,42.60
2023-02-08T08:56:35.840Z,46.10
2023-02-08T08:59:05.503Z,44.80
2023-02-08T09:01:34.821Z,43.30
2023-02-08T09:04:10.011Z,43.90
2023-02-08T09:06:38.784Z,50.90
2023-02-08T09:09:07.482Z,48.00
2023-02-08T09:11:35.339Z,47.20
2023-02-08T09:14:04.684Z,45.10
2023-02-08T09:16:33.156Z,43.90
2023-02-08T09:19:02.655Z,45.10
2023-02-08T09:21:31.147Z,44.20
2023-02-08T09:23:58.962Z,42.50
2023-02-08T09:26:26.794Z,43.90
2023-02-08T09:28:55.034Z,43.60
2023-02-08T09:31:24.944Z,45.60
2023-02-08T09:33:55.586Z,45.10
2023-02-08T09:36:24.769Z,50.60
2023-02-08T09:38:57.920Z,56.70
2023-02-08T09:41:28.674Z,50.20
2023-02-08T09:44:04.860Z,46.60
2023-02-08T09:46:35.172Z,41.60
2023-02-08T09:49:04.430Z,37.50
2023-02-08T09:51:32.115Z,39.30
2023-02-08T09:54:02.092Z,45.20
2023-02-08T09:56:32.157Z,38.00
2023-02-08T09:59:01.123Z,39.60
2023-02-08T10:01:31.297Z,34.40
2023-02-08T10:04:34.691Z,29.00
2023-02-08T10:07:02.568Z,22.10
2023-02-08T10:09:32.777Z,25.10
2023-02-08T10:12:02.519Z,25.40
2023-02-08T10:14:48.958Z,25.90
2023-02-08T10:17:20.021Z,28.00
2023-02-08T10:20:08.010Z,28.20
2023-02-08T10:22:48.158Z,29.50
2023-02-08T10:25:47.184Z,30.70
2023-02-08T10:28:34.827Z,25.80
2023-02-08T10:31:13.438Z,24.40
2023-02-08T10:33:55.296Z,25.70
2023-02-08T10:36:29.127Z,22.80
2023-02-08T10:39:00.474Z,28.10
2023-02-08T10:41:32.743Z,33.80
2023-02-08T10:44:28.193Z,30.80
2023-02-08T10:47:02.382Z,29.00
2023-02-08T10:49:53.736Z,26.30
2023-02-08T10:52:27.698Z,32.60
2023-02-08T10:55:02.930Z,36.10
2023-02-08T10:57:34.216Z,30.20
2023-02-08T11:00:05.157Z,25.10
2023-02-08T11:02:35.627Z,23.80
2023-02-08T11:05:07.602Z,26.40
2023-02-08T11:07:36.949Z,26.70
2023-02-08T11:10:16.919Z,26.10
2023-02-08T11:13:03.841Z,26.70
2023-02-08T11:15:52.000Z,23.40
2023-02-08T11:18:28.153Z,23.10
2023-02-08T11:21:12.079Z,23.00
2023-02-08T11:23:43.591Z,21.90
2023-02-08T11:26:21.406Z,22.10
2023-02-08T11:29:04.500Z,22.90
2023-02-08T11:32:01.220Z,19.90
2023-02-08T11:34:32.674Z,23.50
2023-02-08T11:37:13.694Z,22.40
2023-02-08T11:40:00.719Z,22.90
2023-02-08T11:42:37.283Z,23.60
2023-02-08T11:45:05.914Z,21.10
2023-02-08T11:47:35.356Z,17.50
2023-02-08T11:50:08.240Z,18.80
2023-02-08T11:52:39.476Z,20.90
2023-02-08T11:55:25.736Z,17.90
2023-02-08T11:58:03.187Z,18.10
2023-02-08T12:00:34.298Z,18.60
2023-02-08T12:03:04.432Z,17.40
2023-02-08T12:05:44.972Z,16.80
2023-02-08T12:08:17.815Z,18.40
2023-02-08T12:10:45.485Z,21.10
2023-02-08T12:13:16.300Z,21.60
2023-02-08T12:16:01.348Z,19.20
2023-02-08T12:18:38.618Z,19.70
2023-02-08T12:21:12.951Z,20.90
2023-02-08T12:23:46.569Z,19.60
2023-02-08T12:26:32.739Z,19.70
2023-02-08T12:29:03.546Z,19.00
2023-02-08T12:31:50.093Z,19.10
2023-02-08T12:34:22.820Z,18.70
2023-02-08T12:37:26.416Z,28.20
2023-02-08T12:40:21.497Z,19.80
2023-02-08T12:42:56.323Z,19.20
2023-02-08T12:45:30.175Z,17.70
2023-02-08T12:48:09.843Z,19.70
2023-02-08T12:50:42.148Z,21.60
2023-02-08T12:53:19.932Z,21.80
2023-02-08T12:55:55.602Z,22.70
2023-02-08T12:58:30.139Z,23.50
2023-02-08T13:01:10.071Z,22.10
2023-02-08T13:03:47.629Z,20.30
2023-02-08T13:08:51.207Z,18.10
2023-02-08T13:11:38.174Z,17.00
2023-02-08T13:14:12.828Z,17.30
2023-02-08T13:16:49.464Z,15.90
2023-02-08T13:19:32.282Z,15.20
2023-02-08T13:22:00.705Z,17.60
2023-02-08T13:24:28.630Z,17.00
2023-02-08T13:26:56.490Z,15.50
2023-02-08T13:29:27.895Z,14.40
2023-02-08T13:32:01.407Z,14.10
2023-02-08T13:34:40.990Z,14.50
2023-02-08T13:37:26.178Z,14.90
2023-02-08T13:40:19.930Z,14.40
2023-02-08T13:42:53.029Z,16.30
2023-02-08T13:45:29.394Z,16.10
2023-02-08T13:47:58.910Z,14.20
2023-02-08T13:50:42.191Z,13.80
2023-02-08T13:53:11.931Z,171.60
2023-02-08T13:55:44.344Z,41.10
2023-02-08T13:58:15.567Z,133.10
2023-02-08T14:00:53.685Z,86.70
2023-02-08T14:03:23.663Z,40.00
2023-02-08T14:06:02.556Z,26.30
2023-02-08T14:08:35.257Z,27.30
2023-02-08T14:11:03.100Z,18.80
2023-02-08T14:13:44.647Z,21.00
2023-02-08T14:16:32.608Z,22.40
2023-02-08T14:19:02.614Z,22.50
2023-02-08T14:21:42.356Z,22.40
2023-02-08T14:24:21.193Z,21.90
2023-02-08T14:26:49.675Z,24.30
2023-02-08T14:29:23.325Z,23.60
2023-02-08T14:31:51.544Z,24.80
2023-02-08T14:34:27.149Z,31.20
2023-02-08T14:36:59.136Z,25.10
2023-02-08T14:39:35.142Z,27.50
2023-02-08T14:42:05.593Z,28.00
2023-02-08T14:44:39.516Z,30.90
2023-02-08T14:47:10.328Z,35.80
2023-02-08T14:49:39.972Z,31.00
2023-02-08T14:52:13.713Z,32.90
2023-02-08T14:54:41.612Z,34.50
2023-02-08T14:57:26.550Z,34.90
2023-02-08T14:59:56.822Z,39.40
2023-02-08T15:02:26.654Z,39.60
2023-02-08T15:04:55.499Z,32.80
2023-02-08T15:07:37.096Z,29.10
2023-02-08T15:10:09.691Z,29.80
2023-02-08T15:12:38.826Z,31.90
2023-02-08T15:15:15.575Z,31.10
2023-02-08T15:17:48.552Z,28.10
2023-02-08T15:20:18.681Z,26.80
2023-02-08T15:22:46.440Z,26.70
2023-02-08T15:25:23.409Z,28.20
2023-02-08T15:27:56.253Z,28.50
2023-02-08T15:30:34.874Z,27.40
2023-02-08T15:33:04.026Z,29.50
2023-02-08T15:35:33.392Z,30.90
2023-02-08T15:38:05.225Z,36.00
2023-02-08T15:40:34.317Z,33.40
2023-02-08T15:43:08.824Z,33.40
2023-02-08T15:45:38.124Z,30.20
2023-02-08T15:48:06.848Z,28.20
2023-02-08T15:50:35.846Z,27.70
2023-02-08T15:53:05.129Z,28.50
2023-02-08T15:55:36.592Z,34.40
2023-02-08T15:58:09.619Z,34.60
2023-02-08T16:00:37.812Z,37.10
2023-02-08T16:03:08.784Z,28.90
2023-02-08T16:05:37.018Z,35.80
2023-02-08T16:08:05.152Z,50.10
2023-02-08T16:10:40.668Z,58.90
2023-02-08T16:13:18.037Z,40.80
2023-02-08T16:15:49.380Z,33.90
2023-02-08T16:18:31.000Z,35.00
2023-02-08T16:21:00.212Z,49.20
2023-02-08T16:23:30.664Z,39.40
2023-02-08T16:26:12.632Z,36.80
2023-02-08T16:28:40.503Z,35.60
2023-02-08T16:31:08.455Z,34.00
2023-02-08T16:33:40.176Z,33.20
2023-02-08T16:36:28.423Z,36.80
2023-02-08T16:39:33.159Z,39.90
2023-02-08T16:42:15.674Z,51.50
2023-02-08T16:44:57.974Z,36.20
2023-02-08T16:47:46.124Z,35.70
2023-02-08T16:50:16.665Z,33.30
2023-02-08T16:52:44.635Z,36.10
2023-02-08T16:55:18.995Z,39.40
2023-02-08T16:57:48.186Z,34.80
2023-02-08T17:00:36.372Z,32.00
2023-02-08T17:03:04.081Z,32.60
2023-02-08T17:05:35.434Z,35.20
2023-02-08T17:08:04.288Z,32.10
2023-02-08T17:10:32.797Z,33.10
2023-02-08T17:13:18.748Z,30.00
2023-02-08T17:15:49.079Z,29.70
2023-02-08T17:18:17.377Z,27.90
2023-02-08T17:20:45.646Z,26.50
2023-02-08T17:23:21.194Z,24.50
2023-02-08T17:25:48.943Z,21.70
2023-02-08T17:28:18.758Z,24.90
2023-02-08T17:30:48.226Z,21.60
2023-02-08T17:33:19.800Z,24.50
2023-02-08T17:35:49.266Z,23.50
2023-02-08T17:38:18.059Z,25.20
2023-02-08T17:40:45.947Z,21.40
2023-02-08T17:43:14.020Z,18.00
2023-02-08T17:45:42.987Z,17.60
2023-02-08T17:48:13.529Z,18.70
2023-02-08T17:50:43.576Z,16.40
2023-02-08T17:53:15.492Z,16.80
2023-02-08T17:55:44.694Z,18.10
2023-02-08T17:58:15.086Z,18.90
2023-02-08T18:00:44.162Z,27.50
2023-02-08T18:03:12.620Z,26.80
2023-02-08T18:05:40.508Z,20.30
2023-02-08T18:08:08.716Z,18.50
2023-02-08T18:10:36.880Z,19.30
2023-02-08T18:13:05.174Z,20.60
2023-02-08T18:15:33.941Z,19.60
2023-02-08T18:18:03.430Z,21.70
2023-02-08T18:20:32.596Z,28.80
2023-02-08T18:23:00.541Z,29.80
2023-02-08T18:25:28.360Z,32.50
2023-02-08T18:27:56.335Z,41.40
2023-02-08T18:30:31.021Z,77.70
2023-02-08T18:32:59.403Z,43.50
2023-02-08T18:35:27.165Z,36.30
2023-02-08T18:37:55.154Z,34.60
2023-02-08T18:40:32.133Z,34.20
2023-02-08T18:43:02.396Z,42.30
2023-02-08T18:45:30.183Z,44.60
2023-02-08T18:48:20.859Z,40.70
2023-02-08T18:50:54.790Z,42.30
2023-02-08T18:53:27.496Z,63.60
2023-02-08T18:56:15.956Z,65.50
2023-02-08T18:58:44.435Z,49.80
2023-02-08T19:01:14.879Z,37.40
2023-02-08T19:03:43.789Z,29.60
2023-02-08T19:06:16.916Z,27.50
2023-02-08T19:08:46.147Z,28.10
2023-02-08T19:11:23.936Z,33.10
2023-02-08T19:13:52.799Z,40.10
2023-02-08T19:16:23.214Z,29.60
2023-02-08T19:18:53.053Z,27.70
2023-02-08T19:21:24.353Z,28.20
2023-02-08T19:23:53.139Z,25.40
2023-02-08T19:26:23.776Z,22.10
2023-02-08T19:28:55.190Z,22.40
2023-02-08T19:31:30.850Z,20.40
2023-02-08T19:34:00.823Z,19.10
2023-02-08T19:36:31.944Z,18.60
2023-02-08T19:39:08.250Z,19.10
2023-02-08T19:41:42.615Z,20.60
2023-02-08T19:44:15.831Z,19.20
2023-02-08T19:46:48.459Z,19.20
2023-02-08T19:49:17.049Z,18.60
2023-02-08T19:51:45.263Z,29.10
2023-02-08T19:54:15.740Z,29.10
2023-02-08T19:56:47.220Z,19.30
2023-02-08T19:59:17.509Z,19.70
2023-02-08T20:01:46.132Z,19.90
2023-02-08T20:04:14.787Z,19.20
2023-02-08T20:06:45.050Z,19.80
2023-02-08T20:09:15.314Z,21.50
2023-02-08T20:11:56.507Z,22.70
2023-02-08T20:14:26.344Z,23.00
2023-02-08T20:16:56.201Z,21.10
2023-02-08T20:19:28.340Z,20.10
2023-02-08T20:21:57.978Z,22.70
2023-02-08T20:27:12.962Z,23.10
2023-02-08T20:29:41.952Z,26.30
2023-02-08T20:32:19.009Z,28.60
2023-02-08T20:34:59.187Z,23.40
2023-02-08T20:37:27.914Z,26.90
2023-02-08T20:39:56.881Z,26.40
2023-02-08T20:42:24.945Z,23.00
2023-02-08T20:44:54.438Z,24.30
2023-02-08T20:47:22.701Z,24.00
2023-02-08T20:49:51.344Z,23.90
2023-02-08T20:52:19.391Z,24.70
2023-02-08T20:54:47.966Z,23.60
2023-02-08T20:57:18.147Z,29.70
2023-02-08T20:59:49.730Z,27.50
2023-02-08T21:02:19.219Z,29.00
2023-02-08T21:04:47.457Z,29.40
2023-02-08T21:07:16.478Z,32.80
2023-02-08T21:09:45.276Z,35.80
2023-02-08T21:12:16.120Z,33.70
2023-02-08T21:14:44.721Z,34.80
2023-02-08T21:17:12.778Z,31.10
2023-02-08T21:19:40.703Z,33.00
2023-02-08T21:22:11.110Z,36.00
2023-02-08T21:24:45.542Z,32.90
2023-02-08T21:27:13.704Z,32.00
2023-02-08T21:29:41.496Z,33.00
2023-02-08T21:32:09.857Z,34.30
2023-02-08T21:34:40.417Z,32.70
2023-02-08T21:37:08.358Z,34.20
2023-02-08T21:39:36.222Z,34.20
2023-02-08T21:42:04.038Z,35.80
2023-02-08T21:44:35.434Z,34.60
2023-02-08T21:47:03.668Z,31.70
2023-02-08T21:49:57.222Z,43.30
2023-02-08T21:52:44.030Z,34.20
2023-02-08T21:55:11.770Z,33.00
2023-02-08T21:57:41.167Z,33.30
2023-02-08T22:00:11.868Z,31.70
2023-02-08T22:05:12.594Z,32.90
2023-02-08T22:07:44.743Z,30.90
2023-02-08T22:10:14.543Z,31.70
2023-02-08T22:12:42.383Z,32.50
2023-02-08T22:15:12.224Z,32.70
2023-02-08T22:17:40.017Z,33.60
2023-02-08T22:20:08.700Z,38.10
2023-02-08T22:22:37.986Z,35.90
2023-02-08T22:25:05.925Z,32.00
2023-02-08T22:27:33.950Z,32.20
2023-02-08T22:30:03.076Z,31.50
2023-02-08T22:32:31.017Z,32.90
2023-02-08T22:34:58.704Z,36.20
2023-02-08T22:37:26.540Z,31.70
2023-02-08T22:39:54.271Z,33.50
2023-02-08T22:42:22.303Z,31.20
2023-02-08T22:44:52.519Z,31.20
2023-02-08T22:47:20.816Z,32.20
2023-02-08T22:49:58.699Z,37.70
2023-02-08T22:52:27.682Z,33.30
2023-02-08T22:54:56.280Z,30.70
2023-02-08T22:57:24.277Z,30.20
2023-02-08T22:59:52.138Z,31.80
2023-02-08T23:02:19.938Z,30.00
2023-02-08T23:04:48.171Z,29.80
2023-02-08T23:07:16.019Z,30.20
2023-02-08T23:09:43.668Z,30.90
2023-02-08T23:12:11.757Z,32.80
2023-02-08T23:14:39.862Z,31.80
2023-02-08T23:17:08.079Z,31.20
2023-02-08T23:19:40.403Z,30.50
2023-02-08T23:22:08.569Z,32.60
2023-02-08T23:24:36.277Z,30.40
2023-02-08T23:27:04.129Z,32.30
2023-02-08T23:29:32.059Z,29.60
2023-02-08T23:31:59.854Z,34.10
2023-02-08T23:34:32.406Z,35.70
2023-02-08T23:37:00.201Z,31.50
2023-02-08T23:39:27.905Z,33.00
2023-02-08T23:41:56.143Z,35.90
2023-02-08T23:44:30.119Z,34.90
2023-02-08T23:47:04.167Z,34.20
2023-02-08T23:52:06.051Z,32.90
2023-02-08T23:57:04.518Z,33.50
2023-02-08T23:59:32.326Z,37.10
